Time;durP1;ratioP1;P1;durP2;ratioP2;P2;SDS_P1;SDS_P2;PMS_P1;PMS_P2;Temp;Humidity;BMP_temperature;BMP_pressure;BME280_temperature;BME280_humidity;BME280_pressure;Samples;Min_cycle;Max_cycle;Signal;HPM_P1;HPM_P2
2021/12/18 00:01:10;;;;;;;8.40;6.30;;;;;;;6.67;100.00;102934.97;5071493;28;20178;-76
2021/12/18 00:03:36;;;;;;;9.07;5.87;;;;;;;6.60;100.00;102931.47;5070429;28;20174;-77
2021/12/18 00:06:02;;;;;;;9.07;5.90;;;;;;;6.52;100.00;102929.06;5070963;28;20181;-77
2021/12/18 00:08:28;;;;;;;5.50;4.63;;;;;;;6.61;100.00;102930.44;5070647;28;20174;-77
2021/12/18 00:10:55;;;;;;;7.20;5.47;;;;;;;6.42;100.00;102936.88;5070711;28;20232;-77
2021/12/18 00:13:21;;;;;;;8.40;4.50;;;;;;;6.55;100.00;102945.75;5071000;28;20588;-77
2021/12/18 00:15:46;;;;;;;7.07;4.73;;;;;;;6.57;100.00;102938.19;5070360;28;20170;-77
2021/12/18 00:18:12;;;;;;;6.57;4.73;;;;;;;6.50;100.00;102947.44;5070682;28;20190;-77
2021/12/18 00:20:38;;;;;;;6.27;4.63;;;;;;;6.35;100.00;102953.22;5070861;28;20257;-77
2021/12/18 00:23:05;;;;;;;6.33;4.67;;;;;;;6.42;100.00;102948.56;5070630;28;20202;-77
2021/12/18 00:25:31;;;;;;;6.77;5.10;;;;;;;6.52;100.00;102954.34;5070408;28;20724;-77
2021/12/18 00:27:57;;;;;;;6.93;4.70;;;;;;;6.55;100.00;102945.75;5070366;28;20273;-77
2021/12/18 00:30:23;;;;;;;12.10;5.13;;;;;;;6.40;100.00;102950.69;5070574;28;20258;-77
2021/12/18 00:32:48;;;;;;;7.50;4.57;;;;;;;6.36;100.00;102968.44;5070546;28;20202;-77
2021/12/18 00:35:14;;;;;;;7.90;3.60;;;;;;;6.53;100.00;102952.47;5070193;28;20179;-77
2021/12/18 00:37:40;;;;;;;5.07;3.90;;;;;;;6.59;100.00;102951.56;5070356;28;20178;-77
2021/12/18 00:40:10;;;;;;;6.67;3.90;;;;;;;6.58;100.00;102958.03;5070403;28;20213;-77
2021/12/18 00:45:03;;;;;;;7.17;3.83;;;;;;;6.73;100.00;102957.69;5070387;28;20212;-77
2021/12/18 00:47:28;;;;;;;9.70;4.10;;;;;;;6.58;100.00;102947.19;5070320;28;20228;-77
2021/12/18 00:49:53;;;;;;;5.70;3.60;;;;;;;6.75;100.00;102955.59;5070654;28;20250;-77
2021/12/18 00:52:19;;;;;;;4.90;3.77;;;;;;;6.79;100.00;102952.19;5070282;28;20666;-77
2021/12/18 00:54:44;;;;;;;5.87;4.20;;;;;;;6.91;100.00;102962.31;5070086;28;20174;-77
2021/12/18 00:57:09;;;;;;;5.63;3.90;;;;;;;6.91;100.00;102956.88;5070523;28;20262;-77
2021/12/18 00:59:35;;;;;;;4.60;3.30;;;;;;;6.88;100.00;102958.16;5070308;28;20190;-77
2021/12/18 01:02:01;;;;;;;5.47;4.47;;;;;;;6.88;100.00;102955.44;5070303;28;20171;-77
2021/12/18 01:04:27;;;;;;;5.77;4.80;;;;;;;6.84;100.00;102962.41;5070112;28;20174;-77
2021/12/18 01:06:53;;;;;;;4.07;3.57;;;;;;;6.76;100.00;102949.91;5069959;28;20226;-77
2021/12/18 01:09:24;;;;;;;4.70;3.23;;;;;;;6.77;100.00;102956.19;5070000;28;20179;-77
2021/12/18 01:11:49;;;;;;;5.17;3.63;;;;;;;6.69;100.00;102945.63;5070003;28;20195;-77
2021/12/18 01:14:51;;;;;;;6.57;2.87;;;;;;;6.65;100.00;102945.22;5072027;28;20689;-77
2021/12/18 01:25:00;;;;;;;5.07;3.53;;;;;;;6.61;100.00;102952.16;5073456;28;20798;-77
2021/12/18 01:27:26;;;;;;;4.53;3.93;;;;;;;6.61;100.00;102949.44;5073463;28;20273;-77
2021/12/18 01:29:51;;;;;;;8.23;4.00;;;;;;;6.56;100.00;102958.25;5073349;28;20177;-77
2021/12/18 01:32:17;;;;;;;5.63;3.80;;;;;;;6.57;100.00;102965.34;5073166;28;20214;-77
2021/12/18 01:34:42;;;;;;;5.13;3.63;;;;;;;6.59;100.00;102948.84;5073276;28;20197;-77
2021/12/18 01:37:08;;;;;;;5.93;4.10;;;;;;;6.56;100.00;102944.69;5073537;28;20492;-77
2021/12/18 01:39:33;;;;;;;4.40;3.30;;;;;;;6.55;100.00;102959.31;5073409;28;20535;-77
2021/12/18 01:52:53;;;;;;;4.73;2.40;;;;;;;6.47;100.00;102964.19;5073247;28;20201;-77
2021/12/18 01:55:20;;;;;;;4.10;2.17;;;;;;;6.47;100.00;102954.16;5073382;28;20167;-77
2021/12/18 01:57:46;;;;;;;4.30;3.43;;;;;;;6.48;100.00;102963.97;5073186;28;20178;-77
2021/12/18 02:00:21;;;;;;;6.07;3.30;;;;;;;6.50;100.00;102958.31;5071842;28;20189;-77
2021/12/18 02:02:46;;;;;;;8.33;4.20;;;;;;;6.47;100.00;102956.88;5073060;28;20320;-77
2021/12/18 02:05:11;;;;;;;5.93;3.70;;;;;;;6.44;100.00;102954.59;5072755;28;20254;-77
2021/12/18 02:07:37;;;;;;;5.30;2.83;;;;;;;6.37;100.00;102956.56;5072839;28;20210;-77
2021/12/18 02:10:07;;;;;;;4.83;2.13;;;;;;;6.33;100.00;102949.88;5072880;28;20218;-77
2021/12/18 02:13:23;;;;;;;3.47;2.30;;;;;;;6.32;100.00;102944.69;5073089;28;20210;-77
2021/12/18 02:20:50;;;;;;;3.87;2.17;;;;;;;6.25;100.00;102936.59;5072630;28;20663;-77
2021/12/18 02:23:16;;;;;;;3.40;2.23;;;;;;;6.24;100.00;102940.38;5072665;28;20174;-77
2021/12/18 02:25:46;;;;;;;3.10;1.87;;;;;;;6.22;100.00;102954.19;5071838;28;20210;-77
2021/12/18 02:28:19;;;;;;;2.47;1.87;;;;;;;6.21;100.00;102943.50;5072587;28;20170;-77
2021/12/18 02:30:45;;;;;;;3.60;1.90;;;;;;;6.22;100.00;102943.31;5072860;28;20535;-77
2021/12/18 02:33:11;;;;;;;4.13;2.63;;;;;;;6.23;100.00;102936.00;5072456;28;20729;-77
2021/12/18 02:35:44;;;;;;;3.43;1.90;;;;;;;6.21;100.00;102933.47;5072207;28;20653;-77
2021/12/18 02:38:15;;;;;;;2.37;1.70;;;;;;;6.22;100.00;102924.31;5072211;28;20167;-77
2021/12/18 02:43:10;;;;;;;3.97;2.13;;;;;;;6.22;100.00;102924.31;5072440;28;20657;-77
2021/12/18 02:45:35;;;;;;;2.97;2.10;;;;;;;6.19;100.00;102926.63;5072195;28;20179;-77
2021/12/18 02:48:01;;;;;;;3.07;1.80;;;;;;;6.22;100.00;102926.16;5072133;28;20167;-77
2021/12/18 02:50:26;;;;;;;3.77;2.50;;;;;;;6.21;100.00;102927.22;5072498;28;20175;-77
2021/12/18 02:52:51;;;;;;;3.53;2.17;;;;;;;6.20;100.00;102920.97;5072266;28;20583;-77
2021/12/18 02:55:17;;;;;;;4.23;2.47;;;;;;;6.22;100.00;102931.59;5071807;28;20232;-77
2021/12/18 02:57:42;;;;;;;3.57;2.50;;;;;;;6.21;100.00;102913.66;5071907;28;20175;-77
2021/12/18 03:00:08;;;;;;;5.10;2.57;;;;;;;6.21;100.00;102925.34;5071872;28;20175;-77
2021/12/18 03:02:39;;;;;;;4.30;2.23;;;;;;;6.22;100.00;102924.31;5071779;28;20205;-77
2021/12/18 03:05:08;;;;;;;3.37;2.33;;;;;;;6.22;100.00;102916.16;5071559;28;20702;-77
2021/12/18 03:07:33;;;;;;;4.17;2.77;;;;;;;6.24;100.00;102914.06;5071754;28;20637;-77
2021/12/18 03:23:47;;;;;;;5.57;3.70;;;;;;;6.17;100.00;102896.16;5071871;28;20211;-77
2021/12/18 03:26:14;;;;;;;4.43;2.93;;;;;;;6.17;100.00;102901.59;5071176;28;20201;-76
2021/12/18 03:28:39;;;;;;;6.70;4.63;;;;;;;6.14;100.00;102896.59;5071368;28;20228;-77
2021/12/18 03:31:05;;;;;;;5.53;3.33;;;;;;;6.13;100.00;102900.38;5071659;28;20175;-76
2021/12/18 03:33:30;;;;;;;7.10;4.67;;;;;;;6.11;100.00;102889.75;5071132;28;20206;-77
2021/12/18 03:35:56;;;;;;;4.47;2.33;;;;;;;6.11;100.00;102887.03;5071006;28;20655;-77
2021/12/18 03:38:22;;;;;;;6.17;3.37;;;;;;;6.12;100.00;102882.44;5070317;28;20533;-77
2021/12/18 03:40:47;;;;;;;7.07;3.30;;;;;;;6.12;100.00;102894.13;5071279;28;20178;-76
2021/12/18 03:43:13;;;;;;;5.40;3.17;;;;;;;6.12;100.00;102896.00;5071132;28;20646;-77
2021/12/18 03:45:38;;;;;;;6.43;3.63;;;;;;;6.10;100.00;102889.97;5070847;28;20178;-76
2021/12/18 03:48:04;;;;;;;4.17;2.37;;;;;;;6.10;100.00;102889.97;5071117;28;20167;-77
2021/12/18 03:50:29;;;;;;;6.40;4.13;;;;;;;6.08;100.00;102884.75;5070988;28;20170;-77
2021/12/18 03:52:55;;;;;;;8.77;4.23;;;;;;;6.09;100.00;102882.88;5070913;28;20284;-77
2021/12/18 03:55:21;;;;;;;7.13;3.93;;;;;;;6.10;100.00;102882.66;5070862;28;20232;-77
2021/12/18 03:57:46;;;;;;;6.67;3.93;;;;;;;6.09;100.00;102885.59;5070966;28;20178;-77
2021/12/18 04:00:14;;;;;;;9.60;3.67;;;;;;;6.10;100.00;102892.69;5069713;28;20174;-77
2021/12/18 04:02:40;;;;;;;6.17;4.47;;;;;;;6.10;100.00;102890.78;5070907;28;20336;-76
2021/12/18 04:05:07;;;;;;;4.27;3.50;;;;;;;6.10;100.00;102884.53;5070684;28;20216;-76
2021/12/18 04:07:40;;;;;;;4.83;3.20;;;;;;;6.09;100.00;102891.84;5070794;28;20579;-77
2021/12/18 04:10:06;;;;;;;4.23;2.87;;;;;;;6.07;100.00;102887.66;5070594;28;20658;-76
2021/12/18 04:12:31;;;;;;;4.17;3.13;;;;;;;6.06;100.00;102886.00;5070576;28;20725;-77
2021/12/18 04:14:57;;;;;;;3.33;2.10;;;;;;;6.04;100.00;102888.13;5070479;28;20352;-76
2021/12/18 04:17:22;;;;;;;5.63;3.60;;;;;;;6.01;100.00;102883.13;5070456;28;20217;-76
2021/12/18 04:19:47;;;;;;;5.70;3.87;;;;;;;6.04;100.00;102888.13;5070583;28;20202;-77
2021/12/18 04:22:13;;;;;;;5.17;3.57;;;;;;;6.02;100.00;102880.19;5070755;28;20182;-76
2021/12/18 04:24:38;;;;;;;4.40;3.10;;;;;;;6.02;100.00;102882.09;5070526;28;20474;-76
2021/12/18 04:27:03;;;;;;;2.97;2.60;;;;;;;6.02;100.00;102880.19;5070282;28;20689;-76
2021/12/18 04:29:29;;;;;;;4.93;3.43;;;;;;;5.99;100.00;102868.97;5070476;28;20205;-76
2021/12/18 04:31:54;;;;;;;3.97;2.80;;;;;;;5.96;100.00;102875.66;5070278;28;20239;-77
2021/12/18 04:34:19;;;;;;;6.70;3.13;;;;;;;5.96;100.00;102879.22;5070449;28;20564;-76
2021/12/18 04:36:45;;;;;;;5.83;3.17;;;;;;;5.97;100.00;102885.47;5070392;28;20181;-76
2021/12/18 04:39:10;;;;;;;3.97;3.00;;;;;;;5.94;100.00;102885.91;5069212;28;20699;-77
2021/12/18 04:41:42;;;;;;;5.53;3.60;;;;;;;5.95;100.00;102882.16;5070516;28;20190;-76
2021/12/18 04:44:08;;;;;;;5.67;3.87;;;;;;;5.95;100.00;102879.44;5070559;28;20301;-76
2021/12/18 04:46:33;;;;;;;5.23;3.70;;;;;;;5.93;100.00;102886.94;5070449;28;20262;-77
2021/12/18 04:48:59;;;;;;;3.60;2.43;;;;;;;5.92;100.00;102879.84;5072256;28;20271;-77
2021/12/18 04:51:24;;;;;;;3.70;2.70;;;;;;;5.88;100.00;102882.16;5074474;28;20175;-76
2021/12/18 04:53:49;;;;;;;5.47;3.20;;;;;;;5.87;100.00;102879.66;5073105;28;20181;-76
2021/12/18 04:56:15;;;;;;;5.23;3.57;;;;;;;5.89;100.00;102894.66;5074355;28;20198;-76
2021/12/18 04:58:40;;;;;;;3.90;3.43;;;;;;;5.88;100.00;102881.31;5074839;28;20537;-77
2021/12/18 05:01:05;;;;;;;1.80;1.70;;;;;;;5.81;100.00;102878.66;5074446;28;20178;-76
2021/12/18 05:03:31;;;;;;;5.23;3.53;;;;;;;5.81;100.00;102881.38;5074402;28;20220;-76
2021/12/18 05:05:59;;;;;;;4.20;3.13;;;;;;;5.78;100.00;102872.81;5074229;28;20182;-76
2021/12/18 05:08:25;;;;;;;5.10;3.60;;;;;;;5.76;100.00;102869.50;5074068;28;20414;-77
2021/12/18 05:10:50;;;;;;;4.87;3.77;;;;;;;5.75;100.00;102868.69;5074173;28;20182;-76
2021/12/18 05:13:15;;;;;;;5.67;4.27;;;;;;;5.73;100.00;102865.34;5074038;28;20213;-76
2021/12/18 05:15:41;;;;;;;4.30;2.93;;;;;;;5.77;100.00;102868.44;5073593;28;20166;-77
2021/12/18 05:18:06;;;;;;;4.50;3.60;;;;;;;5.78;100.00;102865.53;5074041;28;20163;-77
2021/12/18 05:20:31;;;;;;;6.10;3.43;;;;;;;5.79;100.00;102871.81;5073846;28;20198;-76
2021/12/18 05:22:57;;;;;;;4.67;3.43;;;;;;;5.80;100.00;102868.03;5073822;28;20479;-76
2021/12/18 05:25:22;;;;;;;5.10;3.90;;;;;;;5.77;100.00;102874.72;5073725;28;20640;-77
2021/12/18 05:27:48;;;;;;;6.87;3.07;;;;;;;5.76;100.00;102875.75;5074313;28;20591;-76
2021/12/18 05:30:13;;;;;;;7.40;3.50;;;;;;;5.78;100.00;102875.53;5073773;28;20234;-77
2021/12/18 05:32:39;;;;;;;4.17;2.67;;;;;;;5.77;100.00;102882.84;5073541;28;20735;-76
2021/12/18 05:35:05;;;;;;;4.97;3.53;;;;;;;5.78;100.00;102883.69;5072177;28;20210;-77
2021/12/18 05:37:43;;;;;;;5.43;3.27;;;;;;;5.76;100.00;102885.78;5073573;28;20175;-77
2021/12/18 05:40:10;;;;;;;4.50;3.27;;;;;;;5.79;100.00;102890.78;5073723;28;20176;-76
2021/12/18 05:42:36;;;;;;;5.00;3.63;;;;;;;5.78;100.00;102889.94;5073431;28;20248;-76
2021/12/18 05:45:01;;;;;;;3.90;2.97;;;;;;;5.77;100.00;102882.00;5073270;28;20601;-76
2021/12/18 05:47:27;;;;;;;4.23;2.50;;;;;;;5.80;100.00;102885.16;5073623;28;20170;-77
2021/12/18 05:49:52;;;;;;;4.90;3.63;;;;;;;5.81;100.00;102886.81;5073461;28;20187;-77
2021/12/18 05:52:17;;;;;;;5.57;3.50;;;;;;;5.84;100.00;102891.78;5073334;28;20233;-77
2021/12/18 05:54:43;;;;;;;5.83;3.83;;;;;;;5.86;100.00;102892.38;5073080;28;20202;-77
2021/12/18 05:57:14;;;;;;;5.40;4.03;;;;;;;5.88;100.00;102879.44;5073156;28;20197;-76
2021/12/18 05:59:40;;;;;;;5.57;3.67;;;;;;;5.86;100.00;102867.16;5071471;28;20174;-77
2021/12/18 06:02:05;;;;;;;5.67;3.87;;;;;;;5.88;100.00;102874.00;5073135;28;20171;-77
2021/12/18 06:04:31;;;;;;;4.90;3.20;;;;;;;5.88;100.00;102884.84;5073336;28;20645;-77
2021/12/18 06:07:05;;;;;;;5.43;3.87;;;;;;;5.86;100.00;102870.69;5072913;28;20175;-77
2021/12/18 06:09:34;;;;;;;4.80;3.43;;;;;;;5.87;100.00;102883.19;5071655;28;20181;-77
2021/12/18 06:12:00;;;;;;;5.43;3.50;;;;;;;5.89;100.00;102872.13;5073285;28;20206;-77
2021/12/18 06:14:29;;;;;;;5.00;3.37;;;;;;;5.88;100.00;102884.84;5073263;28;20702;-76
2021/12/18 06:16:55;;;;;;;2.83;2.03;;;;;;;5.84;100.00;102880.94;5071370;28;20174;-76
2021/12/18 06:19:20;;;;;;;4.13;2.10;;;;;;;5.76;100.00;102878.47;5072861;28;20178;-76
2021/12/18 06:21:46;;;;;;;4.40;3.17;;;;;;;5.76;100.00;102883.06;5073149;28;20170;-76
2021/12/18 06:24:12;;;;;;;4.83;3.70;;;;;;;5.78;100.00;102881.78;5072274;28;20538;-76
2021/12/18 06:26:37;;;;;;;5.90;3.60;;;;;;;5.78;100.00;102881.78;5072924;28;20217;-76
2021/12/18 06:29:02;;;;;;;3.83;2.93;;;;;;;5.76;100.00;102885.78;5072968;28;20205;-76
2021/12/18 06:31:29;;;;;;;4.63;2.47;;;;;;;5.75;100.00;102882.25;5072567;28;20186;-76
2021/12/18 06:33:54;;;;;;;4.63;1.93;;;;;;;5.74;100.00;102879.75;5072693;28;20171;-76
2021/12/18 06:36:20;;;;;;;3.13;1.40;;;;;;;5.71;100.00;102886.44;5072574;28;20179;-76
2021/12/18 06:38:45;;;;;;;3.60;2.37;;;;;;;5.68;100.00;102887.72;5072905;28;20649;-76
2021/12/18 06:41:11;;;;;;;3.40;1.73;;;;;;;5.66;100.00;102881.69;5072928;28;20217;-76
2021/12/18 06:43:36;;;;;;;2.40;2.03;;;;;;;5.65;100.00;102885.44;5072696;28;20175;-77
2021/12/18 06:46:02;;;;;;;3.30;2.23;;;;;;;5.65;100.00;102877.31;5078824;28;20185;-76
2021/12/18 06:48:27;;;;;;;5.50;1.83;;;;;;;5.64;100.00;102881.06;5081314;28;20174;-76
2021/12/18 06:50:53;;;;;;;1.07;0.90;;;;;;;5.62;100.00;102880.44;5076919;28;20166;-77
2021/12/18 06:53:18;;;;;;;1.83;1.43;;;;;;;5.62;100.00;102879.59;5073065;28;20327;-77
2021/12/18 06:55:44;;;;;;;2.47;1.53;;;;;;;5.63;100.00;102883.97;5072228;28;20175;-77
2021/12/18 06:58:09;;;;;;;3.47;1.87;;;;;;;5.64;100.00;102880.22;5072382;28;20181;-77
2021/12/18 07:00:34;;;;;;;3.23;1.93;;;;;;;5.63;100.00;102887.53;5070690;28;20228;-77
2021/12/18 07:03:00;;;;;;;4.20;2.73;;;;;;;5.64;100.00;102885.63;5071927;28;20328;-77
2021/12/18 07:05:25;;;;;;;1.97;1.30;;;;;;;5.65;100.00;102880.03;5071717;28;20174;-77
2021/12/18 07:07:51;;;;;;;2.60;2.10;;;;;;;5.61;100.00;102884.19;5072286;28;20634;-77
2021/12/18 07:10:18;;;;;;;2.03;1.57;;;;;;;5.66;100.00;102884.41;5071819;28;20197;-79
2021/12/18 07:12:43;;;;;;;2.53;1.90;;;;;;;5.66;100.00;102889.00;5071676;28;20237;-78
2021/12/18 07:15:11;;;;;;;3.30;1.90;;;;;;;5.67;100.00;102886.06;5071328;28;20537;-78
2021/12/18 07:17:37;;;;;;;2.60;1.77;;;;;;;5.69;100.00;102888.56;5071569;28;20224;-79
2021/12/18 07:20:04;;;;;;;1.90;1.33;;;;;;;5.70;100.00;102883.97;5072031;28;20179;-79
2021/12/18 07:22:29;;;;;;;3.03;2.10;;;;;;;5.72;100.00;102887.28;5071569;28;20174;-79
2021/12/18 07:24:55;;;;;;;2.17;1.47;;;;;;;5.72;100.00;102882.69;5071235;28;20646;-79
2021/12/18 07:27:20;;;;;;;2.43;2.00;;;;;;;5.68;100.00;102886.88;5071527;28;20175;-78
2021/12/18 07:29:46;;;;;;;2.07;1.63;;;;;;;5.65;100.00;102885.44;5071395;28;20227;-78
2021/12/18 07:32:11;;;;;;;0.57;0.43;;;;;;;5.64;100.00;102880.22;5071253;28;20186;-79
2021/12/18 07:34:36;;;;;;;1.17;1.07;;;;;;;5.61;100.00;102897.75;5070234;28;20171;-77
2021/12/18 07:37:02;;;;;;;0.77;0.77;;;;;;;5.61;100.00;102892.34;5068013;28;20225;-78
2021/12/18 07:39:27;;;;;;;1.53;1.10;;;;;;;5.61;100.00;102892.34;5071009;28;20178;-79
2021/12/18 07:41:53;;;;;;;2.83;1.50;;;;;;;5.65;100.00;102896.28;5070707;28;20444;-79
2021/12/18 07:44:18;;;;;;;0.80;0.60;;;;;;;5.66;100.00;102899.84;5068586;28;20213;-79
2021/12/18 07:46:43;;;;;;;1.13;0.70;;;;;;;5.63;100.00;102889.41;5070771;28;20194;-78
2021/12/18 07:49:09;;;;;;;0.60;0.57;;;;;;;5.60;100.00;102889.84;5071252;28;20174;-78
2021/12/18 07:51:35;;;;;;;0.30;0.30;;;;;;;5.57;100.00;102887.56;5071023;28;20264;-79
2021/12/18 07:54:01;;;;;;;0.50;0.50;;;;;;;5.57;100.00;102885.69;5070953;28;20220;-78
2021/12/18 07:56:26;;;;;;;0.60;0.60;;;;;;;5.60;100.00;102889.84;5069542;28;20247;-79
2021/12/18 07:58:52;;;;;;;1.40;0.60;;;;;;;5.61;100.00;102886.09;5071039;28;20179;-78
2021/12/18 08:01:18;;;;;;;1.17;1.07;;;;;;;5.61;100.00;102896.94;5070878;28;20179;-78
2021/12/18 08:03:44;;;;;;;0.60;0.50;;;;;;;5.60;100.00;102890.69;5070909;28;20556;-78
2021/12/18 08:06:09;;;;;;;1.13;0.47;;;;;;;5.61;100.00;102873.34;5070720;28;20193;-79
2021/12/18 08:08:35;;;;;;;1.13;0.63;;;;;;;5.62;100.00;102890.47;5070728;28;20555;-78
2021/12/18 08:11:00;;;;;;;0.40;0.40;;;;;;;5.64;100.00;102880.22;5070825;28;20194;-78
2021/12/18 08:13:25;;;;;;;0.70;0.10;;;;;;;5.65;100.00;102888.16;5069298;28;20206;-79
2021/12/18 08:15:51;;;;;;;0.30;0.30;;;;;;;5.66;100.00;102881.69;5069308;28;20255;-78
2021/12/18 08:18:16;;;;;;;0.50;0.10;;;;;;;5.67;100.00;102890.66;5070692;28;20214;-78
2021/12/18 08:20:42;;;;;;;0.13;0.10;;;;;;;5.69;100.00;102880.41;5070967;28;20208;-78
2021/12/18 08:23:07;;;;;;;0.43;0.33;;;;;;;5.71;100.00;102905.44;5070167;28;20189;-78
2021/12/18 08:25:33;;;;;;;0.57;0.57;;;;;;;5.74;100.00;102896.03;5070584;28;20623;-78
2021/12/18 08:28:00;;;;;;;0.20;0.20;;;;;;;5.71;100.00;102886.44;5070445;28;20650;-78
2021/12/18 08:30:29;;;;;;;0.40;0.40;;;;;;;5.73;100.00;102892.47;5069387;28;20558;-78
2021/12/18 08:32:58;;;;;;;0.63;0.63;;;;;;;5.73;100.00;102888.94;5070798;28;20344;-78
2021/12/18 08:35:25;;;;;;;0.00;0.00;;;;;;;5.76;100.00;102896.63;5070529;28;20202;-77
2021/12/18 08:37:51;;;;;;;0.30;0.10;;;;;;;5.77;100.00;102892.88;5069303;28;20178;-78
2021/12/18 08:40:16;;;;;;;0.43;0.10;;;;;;;5.78;100.00;102891.81;5070637;28;20705;-78
2021/12/18 08:42:41;;;;;;;0.10;0.10;;;;;;;5.78;100.00;102879.09;5070732;28;20846;-78
2021/12/18 08:45:07;;;;;;;0.47;0.30;;;;;;;5.81;100.00;102881.38;5070396;28;20189;-78
2021/12/18 08:47:33;;;;;;;0.40;0.37;;;;;;;5.81;100.00;102878.66;5070525;28;20261;-78
2021/12/18 08:50:00;;;;;;;0.77;0.47;;;;;;;5.81;100.00;102877.84;5070707;28;20701;-78
2021/12/18 08:52:25;;;;;;;0.47;0.47;;;;;;;5.81;100.00;102881.38;5070417;28;20198;-77
2021/12/18 08:54:50;;;;;;;0.20;0.20;;;;;;;5.82;100.00;102874.91;5070152;28;20261;-84
2021/12/18 08:57:17;;;;;;;0.40;0.40;;;;;;;5.84;100.00;102878.22;5070327;28;20174;-79
2021/12/18 08:59:42;;;;;;;0.27;0.20;;;;;;;5.88;100.00;102881.31;5070505;28;20175;-77
2021/12/18 09:02:09;;;;;;;1.90;0.10;;;;;;;5.89;100.00;102877.56;5070612;28;20228;-76
2021/12/18 09:04:35;;;;;;;0.00;0.00;;;;;;;5.90;100.00;102877.34;5070362;28;20171;-76
2021/12/18 09:07:00;;;;;;;0.67;0.67;;;;;;;5.93;100.00;102876.09;5070244;28;20185;-75
2021/12/18 09:09:26;;;;;;;0.30;0.30;;;;;;;5.93;100.00;102870.66;5070269;28;20658;-76
2021/12/18 09:11:51;;;;;;;0.77;0.77;;;;;;;5.99;100.00;102868.97;5070192;28;20205;-76
2021/12/18 09:14:17;;;;;;;1.03;0.20;;;;;;;5.99;100.00;102874.38;5070178;28;20183;-76
2021/12/18 09:16:42;;;;;;;0.90;0.50;;;;;;;6.03;100.00;102870.19;5069909;28;20220;-76
2021/12/18 09:19:08;;;;;;;0.57;0.57;;;;;;;6.04;100.00;102872.66;5070425;28;20175;-76
2021/12/18 09:21:33;;;;;;;0.70;0.70;;;;;;;6.04;100.00;102877.25;5070049;28;20614;-75
2021/12/18 09:23:58;;;;;;;0.13;0.13;;;;;;;6.04;100.00;102864.53;5070396;28;20184;-76
2021/12/18 09:26:24;;;;;;;1.30;1.20;;;;;;;6.09;100.00;102869.31;5069982;28;20194;-76
2021/12/18 09:28:49;;;;;;;0.53;0.40;;;;;;;6.12;100.00;102855.28;5070065;28;20205;-76
2021/12/18 09:31:15;;;;;;;1.17;0.37;;;;;;;6.11;100.00;102862.59;5070287;28;20844;-76
2021/12/18 09:33:40;;;;;;;0.70;0.70;;;;;;;6.12;100.00;102861.53;5068591;28;20217;-76
2021/12/18 09:36:06;;;;;;;0.87;0.87;;;;;;;6.15;100.00;102863.81;5071312;28;20182;-76
2021/12/18 09:38:31;;;;;;;1.30;1.20;;;;;;;6.13;100.00;102870.50;5072405;28;20261;-75
2021/12/18 09:40:58;;;;;;;0.73;0.60;;;;;;;6.10;100.00;102870.97;5073275;28;20178;-75
2021/12/18 09:43:24;;;;;;;1.97;1.60;;;;;;;6.11;100.00;102870.75;5073328;28;20265;-76
2021/12/18 09:45:50;;;;;;;1.20;1.00;;;;;;;6.15;100.00;102862.97;5072864;28;20232;-76
2021/12/18 09:48:15;;;;;;;0.37;0.37;;;;;;;6.13;100.00;102857.78;5073073;28;20182;-75
2021/12/18 09:50:43;;;;;;;1.50;1.40;;;;;;;6.12;100.00;102856.13;5073187;28;20204;-76
2021/12/18 09:53:09;;;;;;;1.73;1.63;;;;;;;6.17;100.00;102858.16;5073081;28;20238;-76
2021/12/18 09:55:34;;;;;;;0.70;0.70;;;;;;;6.16;100.00;102860.03;5072832;28;20632;-76
2021/12/18 09:58:00;;;;;;;0.50;0.50;;;;;;;6.15;100.00;102843.97;5072874;28;20182;-75
2021/12/18 10:00:25;;;;;;;1.33;1.23;;;;;;;6.13;100.00;102848.81;5072865;28;20195;-76
2021/12/18 10:02:51;;;;;;;1.90;1.57;;;;;;;6.16;100.00;102849.19;5072675;28;20178;-76
2021/12/18 10:05:24;;;;;;;3.83;2.20;;;;;;;6.18;100.00;102848.97;5072106;28;20638;-75
2021/12/18 10:08:11;;;;;;;1.30;1.03;;;;;;;6.19;100.00;102848.72;5071979;28;20182;-75
2021/12/18 10:10:37;;;;;;;0.90;0.80;;;;;;;6.18;100.00;102844.34;5069538;28;20193;-75
2021/12/18 10:13:06;;;;;;;2.07;1.67;;;;;;;6.19;100.00;102845.19;5070058;28;20213;-75
2021/12/18 10:15:32;;;;;;;2.27;1.20;;;;;;;6.19;100.00;102837.03;5069709;28;20182;-75
2021/12/18 10:18:05;;;;;;;1.10;0.80;;;;;;;6.17;100.00;102839.16;5072195;28;20235;-75
2021/12/18 10:20:30;;;;;;;0.67;0.67;;;;;;;6.12;100.00;102842.53;5069772;28;20181;-75
2021/12/18 10:22:59;;;;;;;0.77;0.73;;;;;;;6.16;100.00;102834.78;5072160;28;20179;-76
2021/12/18 10:25:31;;;;;;;2.17;1.83;;;;;;;6.20;100.00;102830.56;5071547;28;20182;-76
2021/12/18 10:28:12;;;;;;;0.90;0.90;;;;;;;6.25;100.00;102836.16;5072364;28;20275;-76
2021/12/18 10:30:51;;;;;;;4.07;2.73;;;;;;;6.19;100.00;102828.91;5072677;28;20178;-76
2021/12/18 10:33:17;;;;;;;8.00;6.43;;;;;;;6.14;100.00;102826.03;5072047;28;20222;-75
2021/12/18 10:35:57;;;;;;;3.30;2.53;;;;;;;6.09;100.00;102818.56;5072213;28;20661;-75
2021/12/18 10:38:49;;;;;;;10.63;3.43;;;;;;;6.07;100.00;102815.22;5070776;28;20589;-76
2021/12/18 10:41:34;;;;;;;6.90;4.67;;;;;;;6.08;100.00;102807.94;5072241;28;20171;-75
2021/12/18 10:44:04;;;;;;;6.40;4.93;;;;;;;6.06;100.00;102807.31;5072044;28;20288;-75
2021/12/18 10:46:31;;;;;;;2.83;2.07;;;;;;;6.07;100.00;102798.13;5071445;28;20190;-75
2021/12/18 10:49:05;;;;;;;3.47;2.60;;;;;;;6.06;100.00;102801.88;5071939;28;20534;-75
2021/12/18 10:51:32;;;;;;;6.60;5.97;;;;;;;6.10;100.00;102794.97;5071916;28;20158;-75
2021/12/18 10:54:00;;;;;;;6.87;5.03;;;;;;;6.10;100.00;102797.69;5071825;28;20514;-75
2021/12/18 10:56:32;;;;;;;4.43;3.77;;;;;;;6.10;100.00;102794.97;5071644;28;20641;-75
2021/12/18 10:58:58;;;;;;;2.57;1.87;;;;;;;6.13;100.00;102797.25;5071723;28;20166;-75
2021/12/18 11:01:23;;;;;;;14.07;6.13;;;;;;;6.13;100.00;102791.81;5072052;28;20261;-75
2021/12/18 11:03:51;;;;;;;3.77;2.73;;;;;;;6.12;100.00;102792.88;5071734;28;20186;-75
2021/12/18 11:06:18;;;;;;;4.63;3.33;;;;;;;6.15;100.00;102782.38;5071608;28;20171;-75
2021/12/18 11:08:52;;;;;;;0.33;0.23;;;;;;;6.15;100.00;102785.09;5071333;28;20210;-75
2021/12/18 11:14:07;;;;;;;0.97;0.87;;;;;;;6.11;100.00;102783.06;5071509;28;20174;-75
2021/12/18 11:16:35;;;;;;;0.40;0.40;;;;;;;6.09;100.00;102775.16;5070887;28;20228;-76
2021/12/18 11:19:04;;;;;;;0.63;0.57;;;;;;;6.06;100.00;102766.59;5071400;28;20182;-75
2021/12/18 11:21:31;;;;;;;0.10;0.10;;;;;;;6.04;100.00;102761.41;5071198;28;20265;-76
2021/12/18 11:24:04;;;;;;;0.20;0.20;;;;;;;6.06;100.00;102755.75;5071186;28;20657;-76
2021/12/18 11:26:41;;;;;;;1.20;1.03;;;;;;;6.09;100.00;102761.59;5070994;28;20859;-76
2021/12/18 11:29:11;;;;;;;0.60;0.60;;;;;;;6.07;100.00;102765.56;5071322;28;20163;-75
2021/12/18 11:31:37;;;;;;;0.23;0.10;;;;;;;6.01;100.00;102752.91;5071273;28;20574;-76
2021/12/18 11:34:02;;;;;;;0.40;0.40;;;;;;;5.94;100.00;102756.50;5069703;28;20175;-76
2021/12/18 11:36:29;;;;;;;2.13;1.10;;;;;;;5.92;100.00;102747.75;5071000;28;20208;-76
2021/12/18 11:38:55;;;;;;;0.37;0.37;;;;;;;5.97;100.00;102756.06;5070926;28;20174;-76
2021/12/18 11:41:21;;;;;;;0.60;0.50;;;;;;;6.02;100.00;102743.69;5070952;28;20178;-76
2021/12/18 11:43:47;;;;;;;0.17;0.17;;;;;;;6.03;100.00;102748.06;5070825;28;20228;-76
2021/12/18 11:46:34;;;;;;;1.13;0.60;;;;;;;6.05;100.00;102741.34;5070630;28;20583;-76
2021/12/18 11:49:03;;;;;;;0.27;0.27;;;;;;;6.08;100.00;102737.38;5070972;28;20178;-75
2021/12/18 11:51:30;;;;;;;0.43;0.43;;;;;;;6.00;100.00;102724.09;5070998;28;20179;-75
2021/12/18 11:53:56;;;;;;;0.30;0.20;;;;;;;5.99;100.00;102736.00;5071087;28;20190;-75
2021/12/18 11:56:22;;;;;;;0.90;0.90;;;;;;;6.02;100.00;102730.13;5070671;28;20170;-75
2021/12/18 11:58:48;;;;;;;0.77;0.77;;;;;;;6.03;100.00;102729.91;5070106;28;20523;-76
2021/12/18 12:01:25;;;;;;;0.40;0.30;;;;;;;6.05;100.00;102727.78;5071138;28;20179;-76
2021/12/18 12:03:50;;;;;;;0.00;0.00;;;;;;;6.06;100.00;102731.34;5069497;28;20189;-76
2021/12/18 12:06:30;;;;;;;0.47;0.30;;;;;;;6.10;100.00;102727.97;5070840;28;20178;-76
2021/12/18 12:09:20;;;;;;;0.60;0.50;;;;;;;6.17;100.00;102733.31;5070667;28;20264;-76